Avalon Airport
YMAV : rendu visible

Aérodrome :











RETROUVEZ-NOUS SUR...

 
LOGIN :

S'inscrire | Disclaimer

   EN    FR    IT 

 









Légende :    VFR   VFR Marginal   IFR   IFR Intensif   IFR Très Intensif
Visi : 
Plafond : 
>= 8 km
>= 3000ft
5 à 8 km
1000 à 3000 ft
1500m à 5 km
500 à 1000 ft
800 à 1500m
200 à 500 ft
< 800m
< 200 ft
Symboles :   Orages  Brouillard  Fortes neiges  Fortes précipitations  Vent > 20 kt






- Altitude de l'aérodrome : 35 ft
- Code IATA : AVV


YMAV - Avalon

DERNIER METAR :
  • 271600Z AUTO 01004KT 9999 // OVC046 12/09 Q1019

METARs EXPIRÉS :
  • 271530Z AUTO 02007KT 9999 // OVC048 12/10 Q1018 RF00.0/000.0
  • 271500Z AUTO 04008KT 9999 // OVC048 OVC072 11/10 Q1019
  • 271430Z AUTO 04007KT 9999 // OVC050 OVC062 11/09 Q1019
  • 271400Z AUTO 05007KT 9999 // OVC050 11/09 Q1019
  • 271330Z AUTO 05006KT 9999 // BKN052 OVC064 10/09 Q1019

TAF TAF YMAV
Valide du 27 à 12h jusqu'au 28 à 12h UTC


271054Z 2712/2812 34006KT CAVOK
FM271400 32007KT 9999 -SHRA BKN040
FM271800 30005KT CAVOK
FM280300 27010KT 9999 SCT040 BKN060
FM281000 32006KT CAVOK
FIR YMMM / Océanie



MET'MAP, la Météo Aéronautique d'un coup d'oeil ! - Copyright ORBIFLY Décembre 2007 - Disclaimer

ORBIFLY MET'MAP TEAM :

Programmation & Développement : Alexandra Zaïnal
Sur une idée originale de : Baudouin d'Aumeries
Assistance à la programmation : Marc-Olivier Méhu
Soutien technique & logistique : Manuel Goepfert

Contact : metmap@orbifly.com




SOURCES & CREDITS :

   NOAA       Earth
Advisory